createdAt,value
2018-11-13T00:00:48.749Z,17.90
2018-11-13T00:01:48.743Z,16.80
2018-11-13T00:02:48.723Z,15.60
2018-11-13T00:03:48.743Z,15.80
2018-11-13T00:04:48.706Z,15.10
2018-11-13T00:05:48.692Z,16.50
2018-11-13T00:06:48.698Z,16.40
2018-11-13T00:07:48.663Z,18.20
2018-11-13T00:08:48.653Z,18.20
2018-11-13T00:09:48.642Z,17.50
2018-11-13T00:10:48.637Z,16.50
2018-11-13T00:11:48.627Z,18.60
2018-11-13T00:12:48.607Z,17.70
2018-11-13T00:13:48.593Z,27.90
2018-11-13T00:14:48.585Z,21.20
2018-11-13T00:15:48.577Z,20.60
2018-11-13T00:16:48.586Z,22.70
2018-11-13T00:17:48.558Z,22.40
2018-11-13T00:18:48.537Z,23.10
2018-11-13T00:19:48.531Z,19.00
2018-11-13T00:20:48.513Z,18.10
2018-11-13T00:21:48.512Z,21.00
2018-11-13T00:22:48.492Z,20.60
2018-11-13T00:23:48.480Z,19.30
2018-11-13T00:24:48.470Z,20.00
2018-11-13T00:25:48.456Z,22.60
2018-11-13T00:26:48.470Z,21.40
2018-11-13T00:27:48.436Z,22.00
2018-11-13T00:28:48.439Z,21.90
2018-11-13T00:29:48.414Z,22.50
2018-11-13T00:30:48.407Z,23.50
2018-11-13T00:31:48.402Z,22.60
2018-11-13T00:32:48.379Z,22.10
2018-11-13T00:33:48.369Z,22.10
2018-11-13T00:34:48.364Z,26.80
2018-11-13T00:35:48.347Z,27.50
2018-11-13T00:36:48.342Z,31.00
2018-11-13T00:37:48.322Z,33.30
2018-11-13T00:38:48.317Z,37.00
2018-11-13T00:39:48.307Z,41.50
2018-11-13T00:40:48.301Z,35.70
2018-11-13T00:41:48.285Z,39.70
2018-11-13T00:42:48.266Z,44.80
2018-11-13T00:43:48.254Z,54.80
2018-11-13T00:44:48.243Z,48.70
2018-11-13T00:45:48.265Z,52.80
2018-11-13T00:46:48.234Z,48.30
2018-11-13T00:47:48.206Z,48.50
2018-11-13T00:48:48.202Z,53.20
2018-11-13T00:49:48.191Z,51.70
2018-11-13T00:50:48.172Z,51.90
2018-11-13T00:51:48.179Z,51.50
2018-11-13T00:52:48.151Z,50.00
2018-11-13T00:53:48.156Z,50.50
2018-11-13T00:54:48.159Z,46.00
2018-11-13T00:55:48.115Z,49.20
2018-11-13T00:56:48.104Z,46.30
2018-11-13T00:57:48.185Z,48.70
2018-11-13T00:58:48.079Z,55.90
2018-11-13T00:59:48.070Z,64.10
2018-11-13T01:00:48.117Z,60.60
2018-11-13T01:01:48.046Z,74.10
2018-11-13T01:02:48.044Z,83.30
2018-11-13T01:03:48.022Z,83.90
2018-11-13T01:04:48.020Z,98.30
2018-11-13T01:05:48.035Z,115.80
2018-11-13T01:06:48.000Z,151.30
2018-11-13T01:07:48.059Z,174.10
2018-11-13T01:08:47.966Z,179.20
2018-11-13T01:09:47.954Z,181.50
2018-11-13T01:10:47.942Z,168.40
2018-11-13T01:11:47.958Z,161.50
2018-11-13T01:12:47.930Z,187.20
2018-11-13T01:13:47.905Z,206.70
2018-11-13T01:14:47.897Z,221.80
2018-11-13T01:15:47.891Z,218.90
2018-11-13T01:16:47.870Z,228.60
2018-11-13T01:17:47.868Z,222.10
2018-11-13T01:18:47.856Z,217.20
2018-11-13T01:19:47.847Z,230.70
2018-11-13T01:20:47.823Z,231.40
2018-11-13T01:21:47.825Z,254.20
2018-11-13T01:22:47.826Z,237.70
2018-11-13T01:23:47.807Z,188.00
2018-11-13T01:24:47.782Z,178.60
2018-11-13T01:25:47.770Z,137.90
2018-11-13T01:26:47.759Z,123.20
2018-11-13T01:27:47.752Z,83.10
2018-11-13T01:28:47.733Z,96.80
2018-11-13T01:29:47.721Z,109.50
2018-11-13T01:30:47.709Z,91.10
2018-11-13T01:31:47.697Z,85.10
2018-11-13T01:32:47.703Z,46.00
2018-11-13T01:33:47.689Z,44.90
2018-11-13T01:34:47.679Z,47.60
2018-11-13T01:35:47.657Z,46.00
2018-11-13T01:36:47.642Z,34.70
2018-11-13T01:37:47.640Z,34.40
2018-11-13T01:38:47.631Z,36.40
2018-11-13T01:39:47.604Z,36.50
2018-11-13T01:40:47.592Z,35.80
2018-11-13T01:41:47.932Z,25.40
2018-11-13T01:42:47.581Z,24.90
2018-11-13T01:43:47.559Z,24.40
2018-11-13T01:44:47.559Z,24.20
2018-11-13T01:45:47.550Z,23.60
2018-11-13T01:46:47.530Z,24.30
2018-11-13T01:47:47.523Z,20.70
2018-11-13T01:48:47.507Z,22.60
2018-11-13T01:49:47.492Z,23.70
2018-11-13T01:50:47.481Z,20.80
2018-11-13T01:51:47.466Z,21.50
2018-11-13T01:52:47.465Z,21.20
2018-11-13T01:53:47.452Z,24.00
2018-11-13T01:54:47.451Z,24.60
2018-11-13T01:55:47.429Z,24.60
2018-11-13T01:56:47.430Z,30.50
2018-11-13T01:57:47.395Z,33.40
2018-11-13T01:58:47.393Z,35.50
2018-11-13T01:59:47.386Z,32.20
2018-11-13T02:00:47.365Z,35.60
2018-11-13T02:01:47.354Z,34.40
2018-11-13T02:02:47.356Z,35.40
2018-11-13T02:03:47.337Z,35.20
2018-11-13T02:04:47.321Z,36.40
2018-11-13T02:05:47.305Z,42.80
2018-11-13T02:06:47.295Z,43.50
2018-11-13T02:07:47.289Z,41.20
2018-11-13T02:08:47.293Z,42.10
2018-11-13T02:09:47.259Z,53.50
2018-11-13T02:10:47.245Z,49.70
2018-11-13T02:11:47.233Z,50.80
2018-11-13T02:12:47.223Z,50.30
2018-11-13T02:13:47.226Z,52.70
2018-11-13T02:14:47.199Z,53.10
2018-11-13T02:15:47.194Z,56.70
2018-11-13T02:16:47.180Z,52.80
2018-11-13T02:17:47.169Z,50.50
2018-11-13T02:18:47.165Z,53.60
2018-11-13T02:19:47.140Z,55.00
2018-11-13T02:20:47.130Z,51.90
2018-11-13T02:21:47.174Z,53.70
2018-11-13T02:22:47.105Z,55.00
2018-11-13T02:23:47.106Z,56.30
2018-11-13T02:24:47.098Z,57.10
2018-11-13T02:25:47.074Z,51.10
2018-11-13T02:26:47.062Z,53.80
2018-11-13T02:27:47.050Z,52.30
2018-11-13T02:28:47.072Z,51.20
2018-11-13T02:29:47.031Z,51.70
2018-11-13T02:30:47.035Z,53.00
2018-11-13T02:31:47.006Z,55.70
2018-11-13T02:32:46.994Z,52.80
2018-11-13T02:33:46.997Z,52.20
2018-11-13T02:34:46.978Z,52.10
2018-11-13T02:35:46.967Z,51.40
2018-11-13T02:36:46.947Z,38.90
2018-11-13T02:37:46.946Z,41.80
2018-11-13T02:38:46.945Z,40.60
2018-11-13T02:39:46.918Z,42.60
2018-11-13T02:40:46.903Z,37.40
2018-11-13T02:41:46.908Z,37.90
2018-11-13T02:42:46.881Z,31.20
2018-11-13T02:43:46.874Z,34.60
2018-11-13T02:44:46.866Z,33.70
2018-11-13T02:45:46.848Z,31.00
2018-11-13T02:46:46.836Z,27.20
2018-11-13T02:47:46.825Z,28.80
2018-11-13T02:48:46.810Z,26.80
2018-11-13T02:49:46.811Z,31.80
2018-11-13T02:50:46.787Z,33.50
2018-11-13T02:51:46.799Z,27.10
2018-11-13T02:52:46.776Z,25.80
2018-11-13T02:53:46.760Z,26.40
2018-11-13T02:54:46.755Z,25.40
2018-11-13T02:55:46.737Z,23.40
2018-11-13T02:56:46.721Z,19.60
2018-11-13T02:57:46.709Z,20.20
2018-11-13T02:58:46.709Z,19.90
2018-11-13T02:59:46.719Z,20.70
2018-11-13T03:00:46.672Z,20.40
2018-11-13T03:01:46.660Z,19.00
2018-11-13T03:02:46.649Z,19.50
2018-11-13T03:03:46.649Z,19.80
2018-11-13T03:04:46.647Z,21.90
2018-11-13T03:05:46.615Z,20.00
2018-11-13T03:06:46.604Z,20.00
2018-11-13T03:07:46.593Z,21.10
2018-11-13T03:08:46.584Z,21.40
2018-11-13T03:09:46.588Z,21.30
2018-11-13T03:10:46.569Z,22.00
2018-11-13T03:11:46.544Z,22.80
2018-11-13T03:12:46.533Z,20.20
2018-11-13T03:13:46.590Z,21.50
2018-11-13T03:14:46.527Z,21.10
2018-11-13T03:15:46.528Z,22.90
2018-11-13T03:16:46.494Z,22.40
2018-11-13T03:17:46.476Z,23.20
2018-11-13T03:18:46.465Z,24.80
2018-11-13T03:19:46.468Z,25.60
2018-11-13T03:20:46.444Z,22.70
2018-11-13T03:21:46.432Z,28.20
2018-11-13T03:22:46.429Z,30.80
2018-11-13T03:23:46.406Z,26.20
2018-11-13T03:24:46.417Z,27.80
2018-11-13T03:25:46.385Z,26.80
2018-11-13T03:26:46.392Z,28.30
2018-11-13T03:27:46.363Z,27.90
2018-11-13T03:28:46.348Z,29.00
2018-11-13T03:29:46.349Z,28.00
2018-11-13T03:30:46.332Z,25.60
2018-11-13T03:31:46.319Z,29.40
2018-11-13T03:32:46.305Z,30.00
2018-11-13T03:33:46.298Z,29.20
2018-11-13T03:34:46.293Z,26.70
2018-11-13T03:35:46.269Z,27.60
2018-11-13T03:36:46.258Z,28.60
2018-11-13T03:37:46.264Z,26.80
2018-11-13T03:38:46.240Z,27.70
2018-11-13T03:39:46.253Z,27.00
2018-11-13T03:40:46.213Z,24.80
2018-11-13T03:41:46.205Z,26.90
2018-11-13T03:42:46.197Z,25.70
2018-11-13T03:43:46.181Z,26.60
2018-11-13T03:44:46.171Z,27.30
2018-11-13T03:45:46.170Z,24.00
2018-11-13T03:46:46.148Z,25.40
2018-11-13T03:47:46.134Z,25.70
2018-11-13T03:48:46.134Z,27.30
2018-11-13T03:49:46.120Z,23.80
2018-11-13T03:50:46.112Z,23.00
2018-11-13T03:51:46.089Z,23.70
2018-11-13T03:52:46.076Z,26.60
2018-11-13T03:53:46.067Z,25.80
2018-11-13T03:54:46.051Z,23.00
2018-11-13T03:55:46.057Z,23.70
2018-11-13T03:56:46.033Z,22.90
2018-11-13T03:57:46.017Z,23.40
2018-11-13T03:58:46.012Z,26.20
2018-11-13T03:59:46.007Z,24.10
2018-11-13T04:00:46.004Z,20.40
2018-11-13T04:01:45.973Z,22.30
2018-11-13T04:02:45.969Z,22.90
2018-11-13T04:03:45.953Z,21.50
2018-11-13T04:04:45.953Z,20.10
2018-11-13T04:05:45.955Z,18.60
2018-11-13T04:06:45.918Z,19.40
2018-11-13T04:07:45.907Z,19.70
2018-11-13T04:08:45.906Z,20.70
2018-11-13T04:09:45.877Z,21.10
2018-11-13T04:10:45.888Z,19.50
2018-11-13T04:11:45.857Z,22.00
2018-11-13T04:12:45.847Z,20.10
2018-11-13T04:13:45.848Z,18.60
2018-11-13T04:14:45.838Z,16.20
2018-11-13T04:15:45.823Z,17.90
2018-11-13T04:16:45.815Z,19.50
2018-11-13T04:17:45.796Z,17.30
2018-11-13T04:18:45.784Z,18.30
2018-11-13T04:19:45.797Z,16.30
2018-11-13T04:20:45.774Z,17.60
2018-11-13T04:21:45.742Z,16.60
2018-11-13T04:22:45.730Z,18.80
2018-11-13T04:23:45.716Z,18.70
2018-11-13T04:24:45.762Z,20.30
2018-11-13T04:25:45.710Z,20.20
2018-11-13T04:26:45.702Z,24.40
2018-11-13T04:27:45.674Z,24.30
2018-11-13T04:28:45.676Z,24.60
2018-11-13T04:29:45.647Z,26.10
2018-11-13T04:30:45.746Z,23.90
2018-11-13T04:31:45.641Z,30.00
2018-11-13T04:32:45.612Z,29.80
2018-11-13T04:33:45.615Z,29.50
2018-11-13T04:34:45.589Z,32.10
2018-11-13T04:35:45.588Z,31.80
2018-11-13T04:36:45.573Z,27.90
2018-11-13T04:37:45.554Z,29.70
2018-11-13T04:38:45.548Z,27.40
2018-11-13T04:39:45.532Z,21.40
2018-11-13T04:40:45.537Z,25.30
2018-11-13T04:41:45.515Z,20.90
2018-11-13T04:42:45.499Z,25.30
2018-11-13T04:43:45.485Z,22.70
2018-11-13T04:44:45.486Z,18.60
2018-11-13T04:45:45.464Z,18.20
2018-11-13T04:46:45.460Z,17.80
2018-11-13T04:47:45.438Z,15.90
2018-11-13T04:48:45.436Z,15.60
2018-11-13T04:49:45.421Z,15.30
2018-11-13T04:50:45.405Z,13.70
2018-11-13T04:51:45.523Z,12.00
2018-11-13T04:52:45.383Z,12.70
2018-11-13T04:53:45.379Z,10.60
2018-11-13T04:54:45.363Z,14.40
2018-11-13T04:55:45.355Z,10.40
2018-11-13T04:56:45.349Z,11.40
2018-11-13T04:57:45.322Z,12.00
2018-11-13T04:58:45.312Z,12.00
2018-11-13T04:59:45.310Z,10.40
2018-11-13T05:00:45.289Z,11.50
2018-11-13T05:01:45.300Z,11.30
2018-11-13T05:02:45.335Z,11.20
2018-11-13T05:03:45.256Z,10.70
2018-11-13T05:04:45.245Z,10.50
2018-11-13T05:05:45.243Z,11.60
2018-11-13T05:06:45.237Z,11.40
2018-11-13T05:07:45.211Z,10.20
2018-11-13T05:08:45.202Z,9.20
2018-11-13T05:09:45.186Z,8.40
2018-11-13T05:10:45.178Z,8.30
2018-11-13T05:11:45.188Z,8.70
2018-11-13T05:12:45.166Z,9.20
2018-11-13T05:13:45.140Z,9.90
2018-11-13T05:14:45.129Z,7.60
2018-11-13T05:15:45.117Z,7.70
2018-11-13T05:16:45.132Z,8.90
2018-11-13T05:17:45.118Z,7.40
2018-11-13T05:18:45.091Z,8.60
2018-11-13T05:19:45.075Z,7.50
2018-11-13T05:20:45.063Z,9.80
2018-11-13T05:21:45.053Z,8.50
2018-11-13T05:22:45.057Z,7.40
2018-11-13T05:23:45.029Z,8.20
2018-11-13T05:24:45.014Z,8.20
2018-11-13T05:25:45.002Z,7.50
2018-11-13T05:26:44.992Z,8.00
2018-11-13T05:27:44.993Z,8.60
2018-11-13T05:28:44.981Z,8.80
2018-11-13T05:29:44.957Z,7.70
2018-11-13T05:30:44.946Z,7.30
2018-11-13T05:31:44.934Z,8.80
2018-11-13T05:32:44.932Z,10.40
2018-11-13T05:33:44.916Z,8.20
2018-11-13T05:34:44.923Z,9.50
2018-11-13T05:35:44.890Z,8.80
2018-11-13T05:36:44.880Z,9.40
2018-11-13T05:37:44.874Z,8.20
2018-11-13T05:38:44.871Z,8.90
2018-11-13T05:39:44.852Z,8.20
2018-11-13T05:40:44.855Z,9.90
2018-11-13T05:41:44.925Z,9.70
2018-11-13T05:42:44.820Z,9.60
2018-11-13T05:43:44.796Z,12.10
2018-11-13T05:44:44.784Z,10.80
2018-11-13T05:45:44.786Z,10.70
2018-11-13T05:46:44.764Z,10.30
2018-11-13T05:47:44.760Z,10.50
2018-11-13T05:48:44.738Z,13.20
2018-11-13T05:49:44.725Z,10.00
2018-11-13T05:50:44.720Z,10.30
2018-11-13T05:51:44.711Z,12.60
2018-11-13T05:52:44.701Z,12.00
2018-11-13T05:53:44.679Z,11.20
2018-11-13T05:54:44.670Z,11.90
2018-11-13T05:55:44.674Z,11.10
2018-11-13T05:56:44.658Z,11.80
2018-11-13T05:57:44.651Z,11.10
2018-11-13T05:58:44.625Z,12.10
2018-11-13T05:59:44.708Z,11.00
2018-11-13T06:00:44.605Z,11.30
2018-11-13T06:01:44.597Z,11.50
2018-11-13T06:02:44.598Z,12.70
2018-11-13T06:03:44.569Z,12.70
2018-11-13T06:04:44.557Z,13.50
2018-11-13T06:05:44.544Z,14.90
2018-11-13T06:06:44.549Z,13.80
2018-11-13T06:07:44.550Z,17.10
2018-11-13T06:08:44.699Z,14.60
2018-11-13T06:09:44.499Z,17.20
2018-11-13T06:10:44.492Z,15.30
2018-11-13T06:11:44.479Z,13.50
2018-11-13T06:12:44.490Z,16.60
2018-11-13T06:13:44.472Z,15.50
2018-11-13T06:14:44.461Z,15.50
2018-11-13T06:15:44.434Z,16.30
2018-11-13T06:16:44.428Z,18.10
2018-11-13T06:17:44.426Z,16.70
2018-11-13T06:18:44.412Z,15.60
2018-11-13T06:19:44.390Z,15.90
2018-11-13T06:20:44.389Z,16.50
2018-11-13T06:21:44.365Z,15.60
2018-11-13T06:22:44.373Z,16.10
2018-11-13T06:23:44.354Z,17.10
2018-11-13T06:24:44.335Z,15.80
2018-11-13T06:25:44.324Z,16.40
2018-11-13T06:26:44.306Z,17.00
2018-11-13T06:27:44.296Z,16.80
2018-11-13T06:28:44.295Z,16.40
2018-11-13T06:29:44.367Z,17.80
2018-11-13T06:30:44.265Z,17.10
2018-11-13T06:31:44.253Z,17.10
2018-11-13T06:32:44.240Z,16.90
2018-11-13T06:33:44.237Z,16.80
2018-11-13T06:34:44.216Z,15.90
2018-11-13T06:35:44.209Z,15.10
2018-11-13T06:36:44.203Z,17.80
2018-11-13T06:37:44.187Z,19.40
2018-11-13T06:38:44.208Z,17.60
2018-11-13T06:39:44.160Z,15.40
2018-11-13T06:40:44.150Z,17.40
2018-11-13T06:41:44.138Z,17.10
2018-11-13T06:42:44.128Z,16.70
2018-11-13T06:43:44.136Z,16.10
2018-11-13T06:44:44.106Z,16.60
2018-11-13T06:45:44.090Z,19.70
2018-11-13T06:46:44.088Z,14.50
2018-11-13T06:47:44.073Z,15.60
2018-11-13T06:48:44.068Z,18.60
2018-11-13T06:49:44.113Z,17.50
2018-11-13T06:50:44.039Z,16.80
2018-11-13T06:51:44.022Z,17.50
2018-11-13T06:52:44.023Z,15.10
2018-11-13T06:53:44.027Z,15.40
2018-11-13T06:54:43.989Z,17.70
2018-11-13T06:55:43.980Z,15.10
2018-11-13T06:56:44.016Z,15.10
2018-11-13T06:57:43.959Z,17.00
2018-11-13T06:58:43.959Z,14.30
2018-11-13T06:59:43.944Z,11.90
2018-11-13T07:00:43.922Z,12.70
2018-11-13T07:01:43.911Z,11.40
2018-11-13T07:02:43.900Z,12.90
2018-11-13T07:03:43.901Z,13.90
2018-11-13T07:04:43.877Z,11.60
2018-11-13T07:05:43.866Z,13.70
2018-11-13T07:06:43.900Z,13.10
2018-11-13T07:07:43.850Z,9.50
2018-11-13T07:08:43.847Z,10.00
2018-11-13T07:09:43.839Z,7.70
2018-11-13T07:10:43.834Z,10.00
2018-11-13T07:11:43.800Z,15.80
2018-11-13T07:12:43.790Z,9.60
2018-11-13T07:13:43.788Z,9.70
2018-11-13T07:14:43.765Z,6.90
2018-11-13T07:15:43.766Z,7.30
2018-11-13T07:16:43.757Z,8.40
2018-11-13T07:17:43.731Z,9.00
2018-11-13T07:18:43.731Z,7.10
2018-11-13T07:19:43.738Z,9.60
2018-11-13T07:20:43.697Z,7.90
2018-11-13T07:21:43.689Z,8.50
2018-11-13T07:22:43.687Z,8.50
2018-11-13T07:23:43.707Z,8.60
2018-11-13T07:24:43.666Z,6.00
2018-11-13T07:25:43.647Z,6.70
2018-11-13T07:26:43.634Z,7.50
2018-11-13T07:27:43.658Z,6.10
2018-11-13T07:28:43.609Z,5.50
2018-11-13T07:29:43.611Z,4.90
2018-11-13T07:30:43.595Z,7.90
2018-11-13T07:31:43.577Z,3.90
2018-11-13T07:32:43.569Z,4.20
2018-11-13T07:33:43.658Z,4.40
2018-11-13T07:34:43.557Z,4.90
2018-11-13T07:35:43.529Z,4.00
2018-11-13T07:36:43.531Z,4.20
2018-11-13T07:37:43.506Z,4.50
2018-11-13T07:38:43.498Z,5.30
2018-11-13T07:39:43.494Z,6.50
2018-11-13T07:40:43.476Z,4.60
2018-11-13T07:41:43.467Z,5.10
2018-11-13T07:42:43.449Z,4.90
2018-11-13T07:43:43.440Z,4.70
2018-11-13T07:44:43.437Z,4.60
2018-11-13T07:45:43.416Z,5.00
2018-11-13T07:46:43.492Z,6.60
2018-11-13T07:47:43.637Z,6.20
2018-11-13T07:48:43.383Z,5.60
2018-11-13T07:49:43.383Z,5.60
2018-11-13T07:50:43.365Z,5.60
2018-11-13T07:51:43.386Z,6.20
2018-11-13T07:52:43.340Z,6.20
2018-11-13T07:53:43.378Z,6.50
2018-11-13T07:54:43.328Z,6.00
2018-11-13T07:55:43.303Z,5.80
2018-11-13T07:56:43.315Z,6.20
2018-11-13T07:57:43.294Z,6.40
2018-11-13T07:58:43.272Z,7.70
2018-11-13T07:59:43.275Z,5.80
2018-11-13T08:00:43.265Z,7.60
2018-11-13T08:01:43.244Z,7.10
2018-11-13T08:02:43.225Z,5.40
2018-11-13T08:03:43.281Z,6.70
2018-11-13T08:04:43.204Z,5.60
2018-11-13T08:05:43.261Z,6.20
2018-11-13T08:06:43.234Z,5.80
2018-11-13T08:07:43.170Z,6.20
2018-11-13T08:08:43.158Z,7.20
2018-11-13T08:09:43.147Z,6.90
2018-11-13T08:10:43.148Z,8.30
2018-11-13T08:11:43.125Z,6.80
2018-11-13T08:12:43.154Z,6.70
2018-11-13T08:13:43.108Z,7.00
2018-11-13T08:14:43.092Z,7.90
2018-11-13T08:15:43.121Z,7.10
2018-11-13T08:16:43.076Z,7.70
2018-11-13T08:17:43.058Z,9.00
2018-11-13T08:18:43.061Z,8.20
2018-11-13T08:19:43.041Z,7.70
2018-11-13T08:20:43.037Z,7.70
2018-11-13T08:21:43.018Z,6.90
2018-11-13T08:22:43.003Z,8.10
2018-11-13T08:23:42.991Z,6.60
2018-11-13T08:24:42.991Z,6.80
2018-11-13T08:25:43.004Z,7.40
2018-11-13T08:26:42.957Z,6.00
2018-11-13T08:27:42.986Z,6.60
2018-11-13T08:28:42.962Z,5.70
2018-11-13T08:29:43.050Z,5.70
2018-11-13T08:30:42.927Z,6.10
2018-11-13T08:31:42.905Z,6.30
2018-11-13T08:32:42.894Z,9.50
2018-11-13T08:33:42.882Z,5.40
2018-11-13T08:34:42.901Z,6.00
2018-11-13T08:35:42.932Z,5.50
2018-11-13T08:36:42.871Z,5.00
2018-11-13T08:37:42.838Z,4.60
2018-11-13T08:38:42.839Z,4.90
2018-11-13T08:39:42.817Z,5.80
2018-11-13T08:40:42.827Z,5.90
2018-11-13T08:41:42.797Z,7.40
2018-11-13T08:42:42.797Z,7.80
2018-11-13T08:43:42.777Z,8.60
2018-11-13T08:44:42.761Z,7.80
2018-11-13T08:45:42.762Z,7.10
2018-11-13T08:46:42.745Z,6.20
2018-11-13T08:47:42.725Z,6.00
2018-11-13T08:48:42.734Z,5.10
2018-11-13T08:49:42.709Z,5.60
2018-11-13T08:50:42.720Z,4.10
2018-11-13T08:51:35.430Z,3.90
2018-11-13T08:52:35.419Z,4.50
2018-11-13T08:53:35.406Z,4.10
2018-11-13T08:54:35.398Z,4.50
2018-11-13T08:55:35.393Z,4.80
2018-11-13T08:56:35.376Z,4.60
2018-11-13T08:57:35.362Z,3.40
2018-11-13T08:58:35.448Z,3.40
2018-11-13T08:59:35.430Z,3.50
2018-11-13T09:00:35.339Z,4.50
2018-11-13T09:01:35.318Z,3.50
2018-11-13T09:02:35.308Z,3.40
2018-11-13T09:03:35.300Z,3.40
2018-11-13T09:04:35.290Z,3.50
2018-11-13T09:05:35.312Z,4.00
2018-11-13T09:06:35.266Z,4.00
2018-11-13T09:07:35.254Z,4.50
2018-11-13T09:08:35.239Z,4.70
2018-11-13T09:09:35.239Z,6.30
2018-11-13T09:10:35.244Z,4.70
2018-11-13T09:11:35.274Z,3.80
2018-11-13T09:12:35.200Z,4.30
2018-11-13T09:13:35.184Z,3.70
2018-11-13T09:14:35.171Z,4.10
2018-11-13T09:15:35.174Z,3.80
2018-11-13T09:16:35.155Z,4.40
2018-11-13T09:17:35.141Z,6.50
2018-11-13T09:18:35.131Z,4.30
2018-11-13T09:19:35.355Z,4.30
2018-11-13T09:20:35.107Z,3.80
2018-11-13T09:21:35.118Z,4.80
2018-11-13T09:22:35.092Z,4.90
2018-11-13T09:23:35.078Z,4.30
2018-11-13T09:24:35.062Z,6.60
2018-11-13T09:25:35.054Z,5.80
2018-11-13T09:26:35.049Z,5.80
2018-11-13T09:27:35.030Z,6.40
2018-11-13T09:28:35.017Z,7.80
2018-11-13T09:29:35.011Z,8.30
2018-11-13T09:30:35.156Z,10.70
2018-11-13T09:31:35.018Z,12.40
2018-11-13T09:32:34.970Z,16.00
2018-11-13T09:33:35.018Z,19.40
2018-11-13T09:34:34.947Z,24.10
2018-11-13T09:35:34.943Z,26.20
2018-11-13T09:36:34.934Z,29.60
2018-11-13T09:37:34.989Z,40.10
2018-11-13T09:38:34.903Z,46.20
2018-11-13T09:39:34.906Z,49.40
2018-11-13T09:40:34.877Z,49.20
2018-11-13T09:41:34.887Z,54.30
2018-11-13T09:42:34.855Z,38.90
2018-11-13T09:43:34.843Z,36.60
2018-11-13T09:44:34.866Z,39.10
2018-11-13T09:45:34.829Z,38.10
2018-11-13T09:46:34.820Z,40.60
2018-11-13T09:47:34.861Z,34.00
2018-11-13T09:48:34.789Z,36.30
2018-11-13T09:49:34.779Z,42.40
2018-11-13T09:50:34.823Z,48.60
2018-11-13T09:51:34.774Z,44.30
2018-11-13T09:52:34.750Z,47.30
2018-11-13T09:53:34.817Z,38.50
2018-11-13T09:54:34.724Z,49.20
2018-11-13T09:55:34.708Z,53.30
2018-11-13T09:56:34.770Z,59.50
2018-11-13T09:57:34.702Z,58.50
2018-11-13T09:58:34.733Z,50.70
2018-11-13T09:59:34.661Z,48.80
2018-11-13T10:00:34.896Z,34.60
2018-11-13T10:01:35.092Z,33.40
2018-11-13T10:02:35.158Z,35.80
2018-11-13T10:03:35.351Z,41.50
2018-11-13T10:04:35.247Z,36.60
2018-11-13T10:05:34.766Z,16.70
2018-11-13T10:06:34.626Z,17.30
2018-11-13T10:07:34.569Z,16.50
2018-11-13T10:08:34.575Z,8.00
2018-11-13T10:09:34.549Z,8.60
2018-11-13T10:10:34.589Z,8.90
2018-11-13T10:11:34.525Z,7.60
2018-11-13T10:12:34.526Z,4.30
2018-11-13T10:13:34.504Z,5.80
2018-11-13T10:14:34.500Z,4.30
2018-11-13T10:15:34.476Z,3.40
2018-11-13T10:16:34.470Z,3.10
2018-11-13T10:17:34.496Z,2.30
2018-11-13T10:18:34.446Z,2.80
2018-11-13T10:19:34.440Z,2.00
2018-11-13T10:20:34.421Z,2.00
2018-11-13T10:21:34.407Z,3.70
2018-11-13T10:22:34.406Z,2.30
2018-11-13T10:23:34.388Z,1.90
2018-11-13T10:24:34.376Z,2.40
2018-11-13T10:25:34.363Z,2.10
2018-11-13T10:26:34.501Z,2.30
2018-11-13T10:27:34.407Z,2.60
2018-11-13T10:28:34.328Z,2.50
2018-11-13T10:29:34.317Z,1.70
2018-11-13T10:30:34.312Z,2.00
2018-11-13T10:31:34.298Z,2.70
2018-11-13T10:32:34.305Z,2.70
2018-11-13T10:33:34.270Z,2.10
2018-11-13T10:34:34.262Z,1.50
2018-11-13T10:35:34.246Z,3.80
2018-11-13T10:36:34.238Z,1.90
2018-11-13T10:37:34.239Z,2.40
2018-11-13T10:38:34.221Z,1.50
2018-11-13T10:39:34.200Z,1.70
2018-11-13T10:40:34.323Z,2.10
2018-11-13T10:41:34.294Z,5.10
2018-11-13T10:42:34.188Z,5.90
2018-11-13T10:43:34.158Z,4.90
2018-11-13T10:44:34.383Z,3.40
2018-11-13T10:45:34.130Z,2.70
2018-11-13T10:46:34.120Z,4.60
2018-11-13T10:47:34.126Z,2.10
2018-11-13T10:48:34.109Z,2.60
2018-11-13T10:49:34.086Z,1.80
2018-11-13T10:50:34.075Z,1.80
2018-11-13T10:51:34.076Z,3.20
2018-11-13T10:52:34.062Z,1.70
2018-11-13T10:53:34.039Z,1.40
2018-11-13T10:54:34.035Z,1.30
2018-11-13T10:55:34.019Z,1.50
2018-11-13T10:56:34.040Z,1.90
2018-11-13T10:57:34.012Z,1.40
2018-11-13T10:58:33.990Z,1.90
2018-11-13T10:59:33.975Z,1.80
2018-11-13T11:00:33.969Z,1.80
2018-11-13T11:01:33.950Z,2.30
2018-11-13T11:02:34.024Z,2.90
2018-11-13T11:03:33.931Z,1.40
2018-11-13T11:04:33.930Z,1.30
2018-11-13T11:05:33.906Z,1.90
2018-11-13T11:06:33.894Z,1.90
2018-11-13T11:07:33.893Z,1.60
2018-11-13T11:08:33.875Z,1.80
2018-11-13T11:09:33.859Z,1.90
2018-11-13T11:10:33.864Z,1.30
2018-11-13T11:11:33.939Z,1.80
2018-11-13T11:12:33.846Z,1.60
2018-11-13T11:13:33.925Z,1.20
2018-11-13T11:14:33.825Z,1.80
2018-11-13T11:15:33.795Z,1.50
2018-11-13T11:16:33.792Z,1.80
2018-11-13T11:17:33.781Z,2.10
2018-11-13T11:18:33.790Z,1.40
2018-11-13T11:19:33.850Z,2.00
2018-11-13T11:20:33.735Z,2.80
2018-11-13T11:21:33.736Z,2.40
2018-11-13T11:22:33.729Z,1.70
2018-11-13T11:23:33.862Z,2.60
2018-11-13T11:24:33.696Z,2.40
2018-11-13T11:25:33.683Z,2.80
2018-11-13T11:26:33.743Z,3.60
2018-11-13T11:27:33.670Z,2.50
2018-11-13T11:28:33.647Z,2.50
2018-11-13T11:29:33.640Z,1.80
2018-11-13T11:30:33.637Z,2.60
2018-11-13T11:31:33.633Z,2.30
2018-11-13T11:32:33.640Z,2.00
2018-11-13T11:33:33.589Z,1.80
2018-11-13T11:34:33.581Z,2.00
2018-11-13T11:35:33.581Z,2.00
2018-11-13T11:36:33.561Z,1.20
2018-11-13T11:37:33.563Z,2.00
2018-11-13T11:38:33.604Z,0.90
2018-11-13T11:39:33.521Z,2.80
2018-11-13T11:40:33.521Z,1.90
2018-11-13T11:41:33.509Z,1.90
2018-11-13T11:42:33.514Z,2.00
2018-11-13T11:43:33.477Z,1.90
2018-11-13T11:44:33.500Z,2.20
2018-11-13T11:45:33.467Z,1.80
2018-11-13T11:46:33.441Z,1.40
2018-11-13T11:47:33.445Z,1.70
2018-11-13T11:48:33.453Z,1.10
2018-11-13T11:49:33.408Z,1.10
2018-11-13T11:50:33.397Z,1.70
2018-11-13T11:51:33.394Z,2.20
2018-11-13T11:52:33.394Z,2.00
2018-11-13T11:53:33.367Z,1.70
2018-11-13T11:54:33.357Z,1.10
2018-11-13T11:55:33.343Z,0.80
2018-11-13T11:56:33.329Z,1.50
2018-11-13T11:57:33.351Z,1.40
2018-11-13T11:58:33.311Z,1.10
2018-11-13T11:59:33.297Z,1.10
2018-11-13T12:00:33.321Z,1.80
2018-11-13T12:01:33.272Z,1.30
2018-11-13T12:02:33.275Z,2.00
2018-11-13T12:03:33.280Z,1.80
2018-11-13T12:04:33.300Z,2.20
2018-11-13T12:05:33.225Z,1.80
2018-11-13T12:06:33.217Z,2.60
2018-11-13T12:07:33.220Z,1.80
2018-11-13T12:08:33.228Z,2.60
2018-11-13T12:09:33.186Z,1.90
2018-11-13T12:10:33.188Z,2.00
2018-11-13T12:11:33.160Z,1.70
2018-11-13T12:12:33.168Z,1.60
2018-11-13T12:13:33.165Z,2.70
2018-11-13T12:14:33.130Z,1.70
2018-11-13T12:15:33.120Z,1.60
2018-11-13T12:16:33.123Z,2.20
2018-11-13T12:17:33.107Z,2.30
2018-11-13T12:18:33.083Z,1.60
2018-11-13T12:19:33.176Z,2.00
2018-11-13T12:20:33.069Z,1.30
2018-11-13T12:21:33.049Z,2.10
2018-11-13T12:22:33.051Z,1.40
2018-11-13T12:23:33.029Z,3.40
2018-11-13T12:24:33.011Z,1.60
2018-11-13T12:25:33.031Z,1.70
2018-11-13T12:26:32.991Z,2.50
2018-11-13T12:27:32.992Z,3.10
2018-11-13T12:28:32.970Z,2.50
2018-11-13T12:29:32.957Z,2.30
2018-11-13T12:30:32.951Z,2.20
2018-11-13T12:31:32.933Z,1.50
2018-11-13T12:32:32.935Z,2.00
2018-11-13T12:33:32.932Z,3.50
2018-11-13T12:34:32.933Z,2.80
2018-11-13T12:35:32.888Z,2.30
2018-11-13T12:36:32.877Z,2.90
2018-11-13T12:37:32.879Z,1.90
2018-11-13T12:38:32.852Z,2.40
2018-11-13T12:39:32.841Z,4.80
2018-11-13T12:40:32.854Z,3.00
2018-11-13T12:41:32.819Z,4.40
2018-11-13T12:42:32.824Z,2.30
2018-11-13T12:43:32.796Z,3.70
2018-11-13T12:44:32.787Z,2.60
2018-11-13T12:45:32.780Z,3.20
2018-11-13T12:46:32.829Z,2.30
2018-11-13T12:47:32.767Z,4.10
2018-11-13T12:48:32.760Z,2.30
2018-11-13T12:49:32.733Z,4.50
2018-11-13T12:50:32.735Z,4.40
2018-11-13T12:51:32.707Z,3.30
2018-11-13T12:52:32.721Z,3.80
2018-11-13T12:53:32.684Z,2.70
2018-11-13T12:54:32.686Z,2.70
2018-11-13T12:55:32.718Z,2.30
2018-11-13T12:56:32.653Z,3.90
2018-11-13T12:57:32.650Z,3.10
2018-11-13T12:58:32.627Z,2.90
2018-11-13T12:59:32.616Z,4.10
2018-11-13T13:00:32.604Z,1.80
2018-11-13T13:01:32.593Z,4.00
2018-11-13T13:02:32.605Z,3.90
2018-11-13T13:03:32.575Z,2.80